sensor_id;sensor_type;location;lat;lon;timestamp;pressure;altitude;pressure_sealevel;temperature;humidity
21185;BME280;18176;49.502;11.754;2022-11-20T00:02:41;96423.28;;;6.25;58.79
21185;BME280;18176;49.502;11.754;2022-11-20T00:06:44;96412.47;;;6.33;58.59
21185;BME280;18176;49.502;11.754;2022-11-20T00:10:44;96420.66;;;6.25;58.88
21185;BME280;18176;49.502;11.754;2022-11-20T00:14:44;96407.91;;;6.22;58.86
21185;BME280;18176;49.502;11.754;2022-11-20T00:18:45;96431.66;;;6.41;58.52
21185;BME280;18176;49.502;11.754;2022-11-20T00:22:49;96428.84;;;6.35;58.78
21185;BME280;18176;49.502;11.754;2022-11-20T00:26:49;96391.72;;;6.25;58.54
21185;BME280;18176;49.502;11.754;2022-11-20T00:30:50;96423.59;;;6.35;58.71
21185;BME280;18176;49.502;11.754;2022-11-20T00:34:50;96420.97;;;6.35;58.72
21185;BME280;18176;49.502;11.754;2022-11-20T00:38:56;96417.16;;;6.31;58.63
21185;BME280;18176;49.502;11.754;2022-11-20T00:42:56;96423.00;;;6.33;58.57
21185;BME280;18176;49.502;11.754;2022-11-20T00:46:56;96426.66;;;6.32;58.67
21185;BME280;18176;49.502;11.754;2022-11-20T00:50:57;96418.78;;;6.32;58.63
21185;BME280;18176;49.502;11.754;2022-11-20T00:54:59;96430.91;;;6.33;58.54
21185;BME280;18176;49.502;11.754;2022-11-20T00:59:00;96434.13;;;6.35;58.58
21185;BME280;18176;49.502;11.754;2022-11-20T01:03:00;96428.44;;;6.38;58.38
21185;BME280;18176;49.502;11.754;2022-11-20T01:07:00;96425.53;;;6.47;58.25
21185;BME280;18176;49.502;11.754;2022-11-20T01:11:06;96429.47;;;6.38;58.57
21185;BME280;18176;49.502;11.754;2022-11-20T01:15:08;96429.66;;;6.36;58.76
21185;BME280;18176;49.502;11.754;2022-11-20T01:19:14;96434.13;;;6.35;58.83
21185;BME280;18176;49.502;11.754;2022-11-20T01:23:15;96418.78;;;6.32;58.92
21185;BME280;18176;49.502;11.754;2022-11-20T01:27:18;96418.50;;;6.41;58.80
21185;BME280;18176;49.502;11.754;2022-11-20T01:31:21;96424.34;;;6.43;58.70
21185;BME280;18176;49.502;11.754;2022-11-20T01:35:22;96420.28;;;6.47;58.61
21185;BME280;18176;49.502;11.754;2022-11-20T01:39:24;96403.84;;;6.51;58.34
21185;BME280;18176;49.502;11.754;2022-11-20T01:43:27;96408.88;;;6.53;58.35
21185;BME280;18176;49.502;11.754;2022-11-20T01:47:35;96418.84;;;6.69;57.83
21185;BME280;18176;49.502;11.754;2022-11-20T01:51:42;96422.53;;;6.61;58.05
21185;BME280;18176;49.502;11.754;2022-11-20T01:55:49;96434.94;;;6.79;57.87
21185;BME280;18176;49.502;11.754;2022-11-20T02:00:00;96433.19;;;6.91;57.65
21185;BME280;18176;49.502;11.754;2022-11-20T02:04:09;96424.63;;;6.95;57.69
21185;BME280;18176;49.502;11.754;2022-11-20T02:08:10;96421.13;;;7.01;57.65
21185;BME280;18176;49.502;11.754;2022-11-20T02:12:10;96418.03;;;7.04;57.73
21185;BME280;18176;49.502;11.754;2022-11-20T02:16:37;96378.69;;;6.91;57.72
21185;BME280;18176;49.502;11.754;2022-11-20T02:20:40;96409.50;;;7.09;57.83
21185;BME280;18176;49.502;11.754;2022-11-20T02:24:46;96407.44;;;7.11;57.54
21185;BME280;18176;49.502;11.754;2022-11-20T02:28:47;96405.75;;;6.98;57.62
21185;BME280;18176;49.502;11.754;2022-11-20T02:32:47;96419.59;;;7.12;57.68
21185;BME280;18176;49.502;11.754;2022-11-20T02:36:49;96412.25;;;7.14;57.65
21185;BME280;18176;49.502;11.754;2022-11-20T02:40:53;96404.25;;;7.09;57.71
21185;BME280;18176;49.502;11.754;2022-11-20T02:44:53;96402.63;;;7.08;58.07
21185;BME280;18176;49.502;11.754;2022-11-20T02:48:53;96394.94;;;7.06;58.05
21185;BME280;18176;49.502;11.754;2022-11-20T02:52:54;96393.97;;;7.01;58.17
21185;BME280;18176;49.502;11.754;2022-11-20T02:56:57;96397.19;;;7.03;58.19
21185;BME280;18176;49.502;11.754;2022-11-20T03:00:57;96390.34;;;7.02;58.16
21185;BME280;18176;49.502;11.754;2022-11-20T03:04:57;96388.13;;;6.99;58.06
21185;BME280;18176;49.502;11.754;2022-11-20T03:08:57;96391.28;;;6.89;58.38
21185;BME280;18176;49.502;11.754;2022-11-20T03:13:00;96401.97;;;6.94;58.40
21185;BME280;18176;49.502;11.754;2022-11-20T03:17:00;96393.16;;;7.00;58.50
21185;BME280;18176;49.502;11.754;2022-11-20T03:21:00;96394.88;;;6.95;58.54
21185;BME280;18176;49.502;11.754;2022-11-20T03:25:01;96403.50;;;7.02;58.34
21185;BME280;18176;49.502;11.754;2022-11-20T03:29:04;96399.69;;;6.98;58.59
21185;BME280;18176;49.502;11.754;2022-11-20T03:33:05;96397.06;;;6.98;58.33
21185;BME280;18176;49.502;11.754;2022-11-20T03:37:06;96388.13;;;6.99;58.54
21185;BME280;18176;49.502;11.754;2022-11-20T03:41:09;96386.97;;;6.95;58.63
21185;BME280;18176;49.502;11.754;2022-11-20T03:45:12;96397.78;;;7.05;58.29
21185;BME280;18176;49.502;11.754;2022-11-20T03:49:13;96397.69;;;7.12;58.20
21185;BME280;18176;49.502;11.754;2022-11-20T03:53:13;96385.47;;;7.17;57.97
21185;BME280;18176;49.502;11.754;2022-11-20T03:57:13;96381.22;;;7.16;58.03
21185;BME280;18176;49.502;11.754;2022-11-20T04:01:19;96371.72;;;7.15;57.83
21185;BME280;18176;49.502;11.754;2022-11-20T04:05:20;96382.56;;;7.25;57.88
21185;BME280;18176;49.502;11.754;2022-11-20T04:09:20;96390.75;;;7.17;58.06
21185;BME280;18176;49.502;11.754;2022-11-20T04:13:20;96378.34;;;7.06;58.44
21185;BME280;18176;49.502;11.754;2022-11-20T04:17:23;96387.25;;;7.05;58.38
21185;BME280;18176;49.502;11.754;2022-11-20T04:21:24;96377.09;;;7.08;58.36
21185;BME280;18176;49.502;11.754;2022-11-20T04:25:25;96377.06;;;7.27;58.03
21185;BME280;18176;49.502;11.754;2022-11-20T04:29:25;96376.97;;;7.33;57.91
21185;BME280;18176;49.502;11.754;2022-11-20T04:33:28;96372.41;;;7.40;57.77
21185;BME280;18176;49.502;11.754;2022-11-20T04:37:30;96362.53;;;7.36;57.84
21185;BME280;18176;49.502;11.754;2022-11-20T04:41:33;96339.06;;;7.16;57.97
21185;BME280;18176;49.502;11.754;2022-11-20T04:45:33;96359.88;;;7.24;58.23
21185;BME280;18176;49.502;11.754;2022-11-20T04:49:36;96362.34;;;7.19;58.55
21185;BME280;18176;49.502;11.754;2022-11-20T04:53:36;96367.34;;;7.09;58.69
21185;BME280;18176;49.502;11.754;2022-11-20T04:57:36;96364.13;;;7.07;58.87
21185;BME280;18176;49.502;11.754;2022-11-20T05:01:36;96335.38;;;7.05;58.65
21185;BME280;18176;49.502;11.754;2022-11-20T05:05:39;96354.22;;;7.21;58.79
21185;BME280;18176;49.502;11.754;2022-11-20T05:09:39;96355.69;;;7.17;58.87
21185;BME280;18176;49.502;11.754;2022-11-20T05:13:40;96352.84;;;7.18;58.79
21185;BME280;18176;49.502;11.754;2022-11-20T05:17:41;96354.59;;;7.24;58.73
21185;BME280;18176;49.502;11.754;2022-11-20T05:21:49;96350.38;;;7.35;58.54
21185;BME280;18176;49.502;11.754;2022-11-20T05:25:52;96357.28;;;7.36;58.50
21185;BME280;18176;49.502;11.754;2022-11-20T05:29:55;96356.47;;;7.35;58.67
21185;BME280;18176;49.502;11.754;2022-11-20T05:33:57;96347.25;;;7.26;58.95
21185;BME280;18176;49.502;11.754;2022-11-20T05:37:59;96350.75;;;7.38;58.62
21185;BME280;18176;49.502;11.754;2022-11-20T05:42:00;96358.09;;;7.36;58.85
21185;BME280;18176;49.502;11.754;2022-11-20T05:46:17;96346.81;;;7.29;58.97
21185;BME280;18176;49.502;11.754;2022-11-20T05:50:24;96349.13;;;7.37;58.81
21185;BME280;18176;49.502;11.754;2022-11-20T05:54:27;96324.06;;;7.46;58.54
21185;BME280;18176;49.502;11.754;2022-11-20T05:58:29;96341.88;;;7.62;58.29
21185;BME280;18176;49.502;11.754;2022-11-20T06:02:29;96346.72;;;7.65;58.19
21185;BME280;18176;49.502;11.754;2022-11-20T06:06:29;96352.56;;;7.67;58.25
21185;BME280;18176;49.502;11.754;2022-11-20T06:10:32;96350.13;;;7.54;58.47
21185;BME280;18176;49.502;11.754;2022-11-20T06:14:32;96338.97;;;7.41;58.90
21185;BME280;18176;49.502;11.754;2022-11-20T06:18:32;96345.00;;;7.30;59.35
21185;BME280;18176;49.502;11.754;2022-11-20T06:22:33;96344.81;;;7.43;59.21
21185;BME280;18176;49.502;11.754;2022-11-20T06:26:36;96341.66;;;7.52;58.77
21185;BME280;18176;49.502;11.754;2022-11-20T06:30:37;96338.66;;;7.60;58.92
21185;BME280;18176;49.502;11.754;2022-11-20T06:34:37;96337.81;;;7.48;59.04
21185;BME280;18176;49.502;11.754;2022-11-20T06:38:38;96326.25;;;7.49;59.13
21185;BME280;18176;49.502;11.754;2022-11-20T06:42:41;96347.34;;;7.49;59.33
21185;BME280;18176;49.502;11.754;2022-11-20T06:46:41;96343.47;;;7.52;59.30
21185;BME280;18176;49.502;11.754;2022-11-20T06:50:42;96347.34;;;7.49;59.61
21185;BME280;18176;49.502;11.754;2022-11-20T06:54:42;96338.41;;;7.21;60.46
21185;BME280;18176;49.502;11.754;2022-11-20T06:58:44;96348.78;;;6.68;62.26
21185;BME280;18176;49.502;11.754;2022-11-20T07:02:44;96350.22;;;7.18;61.68
21185;BME280;18176;49.502;11.754;2022-11-20T07:06:44;96348.06;;;6.97;61.37
21185;BME280;18176;49.502;11.754;2022-11-20T07:10:45;96357.03;;;7.37;60.77
21185;BME280;18176;49.502;11.754;2022-11-20T07:14:47;96352.63;;;7.49;60.59
21185;BME280;18176;49.502;11.754;2022-11-20T07:18:47;96360.22;;;7.57;60.40
21185;BME280;18176;49.502;11.754;2022-11-20T07:22:53;96356.09;;;7.61;60.43
21185;BME280;18176;49.502;11.754;2022-11-20T07:26:54;96360.41;;;7.44;60.82
21185;BME280;18176;49.502;11.754;2022-11-20T07:30:57;96351.91;;;7.42;60.81
21185;BME280;18176;49.502;11.754;2022-11-20T07:34:58;96361.81;;;7.58;60.73
21185;BME280;18176;49.502;11.754;2022-11-20T07:38:59;96354.50;;;7.60;60.36
21185;BME280;18176;49.502;11.754;2022-11-20T07:42:59;96364.72;;;7.68;60.47
21185;BME280;18176;49.502;11.754;2022-11-20T07:47:02;96367.69;;;7.72;60.30
21185;BME280;18176;49.502;11.754;2022-11-20T07:51:02;96365.44;;;7.75;60.34
21185;BME280;18176;49.502;11.754;2022-11-20T07:55:03;96365.31;;;7.70;60.51
21185;BME280;18176;49.502;11.754;2022-11-20T07:59:03;96362.09;;;7.68;60.52
21185;BME280;18176;49.502;11.754;2022-11-20T08:03:07;96364.06;;;7.73;60.41
21185;BME280;18176;49.502;11.754;2022-11-20T08:07:07;96361.19;;;7.74;60.18
21185;BME280;18176;49.502;11.754;2022-11-20T08:11:07;96354.53;;;7.84;60.16
21185;BME280;18176;49.502;11.754;2022-11-20T08:15:20;96364.34;;;7.65;61.11
21185;BME280;18176;49.502;11.754;2022-11-20T08:19:23;96363.69;;;7.10;62.52
21185;BME280;18176;49.502;11.754;2022-11-20T08:23:23;96356.34;;;7.71;60.95
21185;BME280;18176;49.502;11.754;2022-11-20T08:27:24;96347.16;;;7.62;61.19
21185;BME280;18176;49.502;11.754;2022-11-20T08:31:27;96361.06;;;7.81;60.79
21185;BME280;18176;49.502;11.754;2022-11-20T08:35:33;96370.16;;;7.97;60.30
21185;BME280;18176;49.502;11.754;2022-11-20T08:39:33;96361.56;;;8.01;60.36
21185;BME280;18176;49.502;11.754;2022-11-20T08:43:33;96363.06;;;8.09;60.34
21185;BME280;18176;49.502;11.754;2022-11-20T08:47:34;96367.47;;;8.15;60.32
21185;BME280;18176;49.502;11.754;2022-11-20T08:51:37;96365.03;;;8.25;59.95
21185;BME280;18176;49.502;11.754;2022-11-20T08:55:37;96372.75;;;8.15;60.11
21185;BME280;18176;49.502;11.754;2022-11-20T08:59:37;96367.47;;;8.15;60.08
21185;BME280;18176;49.502;11.754;2022-11-20T09:03:58;96360.56;;;8.14;60.32
21185;BME280;18176;49.502;11.754;2022-11-20T09:08:01;96363.78;;;8.16;60.39
21185;BME280;18176;49.502;11.754;2022-11-20T09:12:01;96345.53;;;8.03;60.52
21185;BME280;18176;49.502;11.754;2022-11-20T09:16:04;96356.53;;;8.11;60.56
21185;BME280;18176;49.502;11.754;2022-11-20T09:20:06;96355.97;;;8.09;60.83
21185;BME280;18176;49.502;11.754;2022-11-20T09:24:09;96350.34;;;8.06;61.01
21185;BME280;18176;49.502;11.754;2022-11-20T09:28:09;96358.63;;;8.21;60.77
21185;BME280;18176;49.502;11.754;2022-11-20T09:32:10;96347.25;;;8.09;60.79
21185;BME280;18176;49.502;11.754;2022-11-20T09:36:10;96345.66;;;8.08;61.00
21185;BME280;18176;49.502;11.754;2022-11-20T09:40:21;96358.94;;;8.13;61.27
21185;BME280;18176;49.502;11.754;2022-11-20T09:44:40;96356.09;;;8.14;61.25
21185;BME280;18176;49.502;11.754;2022-11-20T09:49:02;96341.28;;;8.25;60.95
21185;BME280;18176;49.502;11.754;2022-11-20T09:53:20;96345.22;;;8.34;60.99
21185;BME280;18176;49.502;11.754;2022-11-20T09:57:34;96340.06;;;8.39;61.17
21185;BME280;18176;49.502;11.754;2022-11-20T10:01:37;96340.28;;;8.49;60.70
21185;BME280;18176;49.502;11.754;2022-11-20T10:05:45;96329.75;;;8.49;60.61
21185;BME280;18176;49.502;11.754;2022-11-20T10:09:53;96292.88;;;8.19;60.82
21185;BME280;18176;49.502;11.754;2022-11-20T10:14:11;96308.38;;;8.39;61.18
21185;BME280;18176;49.502;11.754;2022-11-20T10:18:32;96314.47;;;8.51;61.36
21185;BME280;18176;49.502;11.754;2022-11-20T10:22:50;96304.78;;;8.57;61.11
21185;BME280;18176;49.502;11.754;2022-11-20T10:27:08;96306.53;;;8.63;60.77
21185;BME280;18176;49.502;11.754;2022-11-20T10:31:27;96311.13;;;8.67;60.92
21185;BME280;18176;49.502;11.754;2022-11-20T10:35:37;96299.50;;;8.68;60.92
21185;BME280;18176;49.502;11.754;2022-11-20T10:39:49;96307.91;;;8.54;61.52
21185;BME280;18176;49.502;11.754;2022-11-20T10:43:58;96298.72;;;8.68;61.23
21185;BME280;18176;49.502;11.754;2022-11-20T10:48:12;96304.06;;;8.84;60.92
21185;BME280;18176;49.502;11.754;2022-11-20T10:52:24;96305.25;;;9.05;60.43
21185;BME280;18176;49.502;11.754;2022-11-20T10:56:35;96319.13;;;9.12;60.19
21185;BME280;18176;49.502;11.754;2022-11-20T11:00:45;96311.44;;;9.10;60.16
21185;BME280;18176;49.502;11.754;2022-11-20T11:04:50;96302.97;;;9.08;60.63
21185;BME280;18176;49.502;11.754;2022-11-20T11:08:56;96304.84;;;9.25;60.67
21185;BME280;18176;49.502;11.754;2022-11-20T11:12:57;96300.38;;;9.42;60.77
21185;BME280;18176;49.502;11.754;2022-11-20T11:16:58;96289.03;;;9.41;60.56
21185;BME280;18176;49.502;11.754;2022-11-20T11:21:05;96259.72;;;9.14;60.66
21185;BME280;18176;49.502;11.754;2022-11-20T11:25:33;96255.34;;;8.92;60.40
21185;BME280;18176;49.502;11.754;2022-11-20T11:30:47;96243.13;;;8.74;60.82
21185;BME280;18176;49.502;11.754;2022-11-20T11:35:30;96147.22;;;8.06;60.66
21185;BME280;18176;49.502;11.754;2022-11-20T11:40:18;96285.66;;;8.89;61.22
21185;BME280;18176;49.502;11.754;2022-11-20T11:45:05;96269.78;;;9.01;60.80
21185;BME280;18176;49.502;11.754;2022-11-20T11:49:18;96259.50;;;9.16;60.59
21185;BME280;18176;49.502;11.754;2022-11-20T11:53:22;96245.38;;;9.10;60.69
21185;BME280;18176;49.502;11.754;2022-11-20T11:57:44;96231.72;;;8.85;60.96
21185;BME280;18176;49.502;11.754;2022-11-20T12:02:27;96256.56;;;8.61;60.60
21185;BME280;18176;49.502;11.754;2022-11-20T12:06:39;96308.81;;;8.59;60.46
21185;BME280;18176;49.502;11.754;2022-11-20T12:10:56;96282.13;;;8.32;61.58
21185;BME280;18176;49.502;11.754;2022-11-20T12:25:28;96277.31;;;10.15;62.01
21185;BME280;18176;49.502;11.754;2022-11-20T12:34:50;96233.44;;;10.63;60.05
21185;BME280;18176;49.502;11.754;2022-11-20T12:39:07;96258.50;;;10.55;59.13
21185;BME280;18176;49.502;11.754;2022-11-20T12:43:21;96267.31;;;10.61;59.15
21185;BME280;18176;49.502;11.754;2022-11-20T12:47:50;96274.47;;;10.60;58.39
21185;BME280;18176;49.502;11.754;2022-11-20T12:52:26;96273.47;;;10.44;58.48
21185;BME280;18176;49.502;11.754;2022-11-20T12:56:42;96273.66;;;10.59;58.76
21185;BME280;18176;49.502;11.754;2022-11-20T13:00:58;96267.63;;;10.86;58.27
21185;BME280;18176;49.502;11.754;2022-11-20T13:05:19;96251.31;;;10.72;57.73
21185;BME280;18176;49.502;11.754;2022-11-20T13:09:23;96263.84;;;10.38;58.57
21185;BME280;18176;49.502;11.754;2022-11-20T13:13:35;96238.53;;;10.26;58.44
21185;BME280;18176;49.502;11.754;2022-11-20T13:17:52;96263.81;;;10.00;59.10
21185;BME280;18176;49.502;11.754;2022-11-20T13:21:54;96247.38;;;9.98;59.55
21185;BME280;18176;49.502;11.754;2022-11-20T13:26:14;96255.38;;;10.03;59.65
21185;BME280;18176;49.502;11.754;2022-11-20T13:30:19;96249.88;;;9.55;60.40
21185;BME280;18176;49.502;11.754;2022-11-20T13:34:27;96253.94;;;9.46;61.08
21185;BME280;18176;49.502;11.754;2022-11-20T13:38:28;96246.25;;;9.61;61.05
21185;BME280;18176;49.502;11.754;2022-11-20T13:43:28;96232.47;;;9.75;60.26
21185;BME280;18176;49.502;11.754;2022-11-20T13:48:23;96183.09;;;9.48;60.14
21185;BME280;18176;49.502;11.754;2022-11-20T13:52:52;96149.94;;;9.24;60.06
21185;BME280;18176;49.502;11.754;2022-11-20T13:58:00;96254.59;;;9.53;60.83
21185;BME280;18176;49.502;11.754;2022-11-20T14:02:02;96250.81;;;9.65;60.99
21185;BME280;18176;49.502;11.754;2022-11-20T14:06:12;96239.03;;;9.73;60.70
21185;BME280;18176;49.502;11.754;2022-11-20T14:10:27;96248.34;;;9.59;61.09
21185;BME280;18176;49.502;11.754;2022-11-20T14:14:31;96252.41;;;9.50;61.29
21185;BME280;18176;49.502;11.754;2022-11-20T14:18:33;96255.16;;;9.55;61.25
21185;BME280;18176;49.502;11.754;2022-11-20T14:22:33;96261.22;;;9.72;60.86
21185;BME280;18176;49.502;11.754;2022-11-20T14:26:40;96248.66;;;9.79;60.54
21185;BME280;18176;49.502;11.754;2022-11-20T14:30:46;96256.84;;;9.77;60.93
21185;BME280;18176;49.502;11.754;2022-11-20T14:34:49;96271.59;;;9.73;61.25
21185;BME280;18176;49.502;11.754;2022-11-20T14:38:51;96279.88;;;9.49;61.89
21185;BME280;18176;49.502;11.754;2022-11-20T14:42:55;96253.28;;;9.39;61.58
21185;BME280;18176;49.502;11.754;2022-11-20T14:46:56;96265.66;;;8.93;63.11
21185;BME280;18176;49.502;11.754;2022-11-20T14:50:58;96251.31;;;9.17;62.44
21185;BME280;18176;49.502;11.754;2022-11-20T14:54:59;96265.09;;;9.19;62.99
21185;BME280;18176;49.502;11.754;2022-11-20T14:59:02;96264.28;;;9.19;62.56
21185;BME280;18176;49.502;11.754;2022-11-20T15:03:03;96275.31;;;9.28;62.46
21185;BME280;18176;49.502;11.754;2022-11-20T15:07:30;96234.72;;;9.05;62.01
21185;BME280;18176;49.502;11.754;2022-11-20T15:11:34;96257.38;;;9.30;61.84
21185;BME280;18176;49.502;11.754;2022-11-20T15:20:47;96211.53;;;8.79;62.18
21185;BME280;18176;49.502;11.754;2022-11-20T15:25:34;96229.44;;;9.05;61.60
21185;BME280;18176;49.502;11.754;2022-11-20T15:29:34;96258.78;;;9.21;61.97
21185;BME280;18176;49.502;11.754;2022-11-20T15:33:34;96248.13;;;9.15;62.04
21185;BME280;18176;49.502;11.754;2022-11-20T15:37:38;96247.06;;;9.16;61.82
21185;BME280;18176;49.502;11.754;2022-11-20T15:41:38;96251.13;;;9.07;62.15
21185;BME280;18176;49.502;11.754;2022-11-20T15:45:42;96262.66;;;9.01;62.57
21185;BME280;18176;49.502;11.754;2022-11-20T15:49:42;96255.75;;;9.00;62.52
21185;BME280;18176;49.502;11.754;2022-11-20T15:53:45;96259.63;;;9.09;62.45
21185;BME280;18176;49.502;11.754;2022-11-20T15:57:46;96265.50;;;9.11;62.28
21185;BME280;18176;49.502;11.754;2022-11-20T16:01:46;96265.09;;;9.19;62.12
21185;BME280;18176;49.502;11.754;2022-11-20T16:05:46;96270.69;;;9.06;62.90
21185;BME280;18176;49.502;11.754;2022-11-20T16:09:49;96259.78;;;9.03;62.81
21185;BME280;18176;49.502;11.754;2022-11-20T16:13:49;96250.56;;;9.34;62.12
21185;BME280;18176;49.502;11.754;2022-11-20T16:18:02;96258.72;;;9.49;61.53
21185;BME280;18176;49.502;11.754;2022-11-20T16:22:02;96243.19;;;9.36;61.69
21185;BME280;18176;49.502;11.754;2022-11-20T16:26:14;96246.47;;;8.98;62.50
21185;BME280;18176;49.502;11.754;2022-11-20T16:30:15;96251.97;;;9.25;61.97
21185;BME280;18176;49.502;11.754;2022-11-20T16:34:16;96244.94;;;9.30;61.98
21185;BME280;18176;49.502;11.754;2022-11-20T16:38:17;96238.69;;;9.36;61.50
21185;BME280;18176;49.502;11.754;2022-11-20T16:42:19;96245.69;;;9.14;62.49
21185;BME280;18176;49.502;11.754;2022-11-20T16:46:21;96251.78;;;9.14;62.52
21185;BME280;18176;49.502;11.754;2022-11-20T16:50:22;96250.75;;;9.44;61.99
21185;BME280;18176;49.502;11.754;2022-11-20T16:54:22;96235.47;;;9.17;62.17
21185;BME280;18176;49.502;11.754;2022-11-20T16:58:26;96227.78;;;9.33;61.91
21185;BME280;18176;49.502;11.754;2022-11-20T17:02:26;96242.16;;;9.53;61.63
21185;BME280;18176;49.502;11.754;2022-11-20T17:06:29;96240.97;;;9.61;61.13
21185;BME280;18176;49.502;11.754;2022-11-20T17:10:29;96248.25;;;9.54;61.33
21185;BME280;18176;49.502;11.754;2022-11-20T17:14:32;96239.84;;;9.57;61.29
21185;BME280;18176;49.502;11.754;2022-11-20T17:18:32;96244.94;;;9.47;61.20
21185;BME280;18176;49.502;11.754;2022-11-20T17:22:33;96236.94;;;9.42;62.32
21185;BME280;18176;49.502;11.754;2022-11-20T17:26:34;96228.56;;;9.16;62.51
21185;BME280;18176;49.502;11.754;2022-11-20T17:30:37;96217.00;;;9.34;62.04
21185;BME280;18176;49.502;11.754;2022-11-20T17:34:37;96224.44;;;9.54;61.37
21185;BME280;18176;49.502;11.754;2022-11-20T17:38:38;96233.56;;;9.30;62.23
21185;BME280;18176;49.502;11.754;2022-11-20T17:42:38;96212.75;;;9.33;62.47
21185;BME280;18176;49.502;11.754;2022-11-20T17:46:40;96228.72;;;9.55;61.72
21185;BME280;18176;49.502;11.754;2022-11-20T17:50:40;96228.06;;;9.48;61.99
21185;BME280;18176;49.502;11.754;2022-11-20T17:54:40;96229.72;;;9.21;62.95
21185;BME280;18176;49.502;11.754;2022-11-20T17:58:41;96219.19;;;9.09;62.98
21185;BME280;18176;49.502;11.754;2022-11-20T18:02:44;96225.72;;;9.35;62.76
21185;BME280;18176;49.502;11.754;2022-11-20T18:06:44;96206.56;;;8.83;64.17
21185;BME280;18176;49.502;11.754;2022-11-20T18:10:44;96197.84;;;8.54;64.25
21185;BME280;18176;49.502;11.754;2022-11-20T18:14:47;96183.78;;;8.65;63.96
21185;BME280;18176;49.502;11.754;2022-11-20T18:18:53;96193.59;;;8.53;63.78
21185;BME280;18176;49.502;11.754;2022-11-20T18:22:53;96190.72;;;8.43;62.96
21185;BME280;18176;49.502;11.754;2022-11-20T18:26:54;96178.84;;;8.29;62.82
21185;BME280;18176;49.502;11.754;2022-11-20T18:30:54;96150.88;;;8.05;63.76
21185;BME280;18176;49.502;11.754;2022-11-20T18:34:57;96170.00;;;8.35;63.82
21185;BME280;18176;49.502;11.754;2022-11-20T18:38:59;96167.94;;;8.37;63.54
21185;BME280;18176;49.502;11.754;2022-11-20T18:42:59;96156.56;;;8.25;64.64
21185;BME280;18176;49.502;11.754;2022-11-20T18:47:15;96151.28;;;8.25;64.39
21185;BME280;18176;49.502;11.754;2022-11-20T18:51:18;96150.41;;;8.31;63.80
21185;BME280;18176;49.502;11.754;2022-11-20T18:55:18;96126.56;;;8.03;64.92
21185;BME280;18176;49.502;11.754;2022-11-20T18:59:21;96133.06;;;8.23;64.40
21185;BME280;18176;49.502;11.754;2022-11-20T19:03:21;96148.66;;;8.25;64.21
21185;BME280;18176;49.502;11.754;2022-11-20T19:07:25;96127.78;;;7.60;64.69
21185;BME280;18176;49.502;11.754;2022-11-20T19:11:26;96149.78;;;7.31;66.57
21185;BME280;18176;49.502;11.754;2022-11-20T19:15:26;96120.81;;;7.43;65.44
21185;BME280;18176;49.502;11.754;2022-11-20T19:19:27;96132.72;;;7.68;65.70
21185;BME280;18176;49.502;11.754;2022-11-20T19:23:30;96129.38;;;7.85;65.21
21185;BME280;18176;49.502;11.754;2022-11-20T19:27:31;96077.84;;;7.19;66.78
21185;BME280;18176;49.502;11.754;2022-11-20T19:31:32;96109.56;;;7.47;67.03
21185;BME280;18176;49.502;11.754;2022-11-20T19:35:32;96117.47;;;7.70;66.58
21185;BME280;18176;49.502;11.754;2022-11-20T19:39:35;96054.47;;;7.34;67.28
21185;BME280;18176;49.502;11.754;2022-11-20T19:43:38;96107.72;;;8.11;65.97
21185;BME280;18176;49.502;11.754;2022-11-20T19:47:38;96090.88;;;8.12;66.11
21185;BME280;18176;49.502;11.754;2022-11-20T19:51:59;96065.06;;;8.14;65.75
21185;BME280;18176;49.502;11.754;2022-11-20T19:56:02;96073.75;;;8.26;65.73
21185;BME280;18176;49.502;11.754;2022-11-20T20:00:05;96051.03;;;7.85;66.37
21185;BME280;18176;49.502;11.754;2022-11-20T20:04:06;96065.00;;;7.97;65.97
21185;BME280;18176;49.502;11.754;2022-11-20T20:08:06;96083.66;;;8.07;66.26
21185;BME280;18176;49.502;11.754;2022-11-20T20:12:15;96037.53;;;7.82;66.34
21185;BME280;18176;49.502;11.754;2022-11-20T20:16:18;96074.69;;;8.08;66.37
21185;BME280;18176;49.502;11.754;2022-11-20T20:20:20;96089.78;;;8.24;66.06
21185;BME280;18176;49.502;11.754;2022-11-20T20:24:21;96058.81;;;8.20;64.99
21185;BME280;18176;49.502;11.754;2022-11-20T20:28:24;96081.63;;;8.37;64.68
21185;BME280;18176;49.502;11.754;2022-11-20T20:32:24;96060.34;;;8.16;65.04
21185;BME280;18176;49.502;11.754;2022-11-20T20:36:25;96008.88;;;8.02;64.61
21185;BME280;18176;49.502;11.754;2022-11-20T20:40:28;96063.72;;;8.39;64.54
21185;BME280;18176;49.502;11.754;2022-11-20T20:44:31;96064.28;;;8.41;64.64
21185;BME280;18176;49.502;11.754;2022-11-20T20:48:44;96012.09;;;8.04;64.82
21185;BME280;18176;49.502;11.754;2022-11-20T20:52:50;96051.88;;;8.42;64.80
21185;BME280;18176;49.502;11.754;2022-11-20T20:56:51;96056.66;;;8.45;65.08
21185;BME280;18176;49.502;11.754;2022-11-20T21:01:01;96047.72;;;8.46;64.47
21185;BME280;18176;49.502;11.754;2022-11-20T21:05:03;96010.59;;;8.36;64.03
21185;BME280;18176;49.502;11.754;2022-11-20T21:09:06;96039.59;;;8.64;64.16
21185;BME280;18176;49.502;11.754;2022-11-20T21:13:11;96050.47;;;8.84;63.86
21185;BME280;18176;49.502;11.754;2022-11-20T21:17:13;96037.34;;;8.73;63.81
21185;BME280;18176;49.502;11.754;2022-11-20T21:21:15;96007.56;;;8.44;64.06
21185;BME280;18176;49.502;11.754;2022-11-20T21:25:28;96034.00;;;8.61;64.11
21185;BME280;18176;49.502;11.754;2022-11-20T21:29:29;96023.75;;;8.64;64.07
21185;BME280;18176;49.502;11.754;2022-11-20T21:33:38;96022.16;;;8.63;64.02
21185;BME280;18176;49.502;11.754;2022-11-20T21:37:39;96031.09;;;8.62;64.19
21185;BME280;18176;49.502;11.754;2022-11-20T21:41:40;96021.00;;;8.59;64.48
21185;BME280;18176;49.502;11.754;2022-11-20T21:45:40;95988.81;;;8.29;64.63
21185;BME280;18176;49.502;11.754;2022-11-20T21:49:43;95999.88;;;8.26;65.62
21185;BME280;18176;49.502;11.754;2022-11-20T21:53:46;95991.28;;;8.19;66.96
21185;BME280;18176;49.502;11.754;2022-11-20T21:57:48;95994.16;;;8.62;65.98
21185;BME280;18176;49.502;11.754;2022-11-20T22:01:48;95966.91;;;8.45;66.50